CES1211 ZYTL-ZYCC
Flight info
| Callsign | CES1211 |
|---|---|
| Flight time | N/A |
| Altitude | 37100 |
| Route | VENOS A588 LEMOT LEMOT7A |
| Aircraft | A321/M-SDE3FGHIRWY/LB1 |
Departure
| Time | 2026-04-28 09:41 |
|---|---|
| Airport | Dalian Zhoushuizi International Airport (ZYTL) |
Arrival
| Time | N/A |
|---|---|
| Airport | Changchun Longjia International Airport (ZYCC) |
| Time | Latitude | Longitude | Altitude | Speed | Heading |
|---|---|---|---|---|---|
| 2026-04-28 08:55 | 38.96289 | 121.52903 | 113 ft | 0 kts | 276° |
| 2026-04-28 09:30 | 38.96294 | 121.52872 | 113 ft | 8 kts | 292° |
| 2026-04-28 09:30 | 38.96367 | 121.52852 | 113 ft | 13 kts | 8° |
| 2026-04-28 09:30 | 38.96444 | 121.52905 | 112 ft | 15 kts | 95° |
| 2026-04-28 09:31 | 38.96432 | 121.53060 | 113 ft | 19 kts | 95° |
| 2026-04-28 09:31 | 38.96425 | 121.53244 | 112 ft | 21 kts | 80° |
| 2026-04-28 09:31 | 38.96425 | 121.53429 | 112 ft | 20 kts | 96° |
| 2026-04-28 09:31 | 38.96410 | 121.53611 | 112 ft | 20 kts | 97° |
| 2026-04-28 09:32 | 38.96393 | 121.53793 | 112 ft | 20 kts | 95° |
| 2026-04-28 09:32 | 38.96384 | 121.53972 | 112 ft | 19 kts | 96° |
| 2026-04-28 09:32 | 38.96371 | 121.54147 | 112 ft | 19 kts | 96° |
| 2026-04-28 09:32 | 38.96335 | 121.54305 | 112 ft | 18 kts | 159° |
| 2026-04-28 09:33 | 38.96324 | 121.54197 | 112 ft | 17 kts | 300° |
| 2026-04-28 09:33 | 38.96376 | 121.54058 | 112 ft | 17 kts | 282° |
| 2026-04-28 09:33 | 38.96389 | 121.53908 | 113 ft | 16 kts | 276° |
| 2026-04-28 09:33 | 38.96401 | 121.53758 | 112 ft | 16 kts | 276° |
| 2026-04-28 09:34 | 38.96412 | 121.53611 | 113 ft | 16 kts | 276° |
| 2026-04-28 09:34 | 38.96425 | 121.53462 | 112 ft | 16 kts | 275° |
| 2026-04-28 09:34 | 38.96432 | 121.53314 | 113 ft | 16 kts | 268° |
| 2026-04-28 09:34 | 38.96418 | 121.53167 | 113 ft | 16 kts | 264° |
| 2026-04-28 09:35 | 38.96431 | 121.53020 | 113 ft | 16 kts | 281° |
| 2026-04-28 09:35 | 38.96443 | 121.52874 | 113 ft | 16 kts | 276° |
| 2026-04-28 09:35 | 38.96456 | 121.52727 | 113 ft | 16 kts | 276° |
| 2026-04-28 09:35 | 38.96468 | 121.52581 | 113 ft | 16 kts | 278° |
| 2026-04-28 09:36 | 38.96480 | 121.52438 | 113 ft | 16 kts | 277° |
| 2026-04-28 09:36 | 38.96490 | 121.52293 | 113 ft | 16 kts | 277° |
| 2026-04-28 09:36 | 38.96502 | 121.52147 | 113 ft | 16 kts | 276° |
| 2026-04-28 09:36 | 38.96515 | 121.52003 | 113 ft | 16 kts | 277° |
| 2026-04-28 09:37 | 38.96536 | 121.51951 | 113 ft | 0 kts | 327° |
| 2026-04-28 09:37 | 38.96537 | 121.51950 | 113 ft | 1 kts | 330° |
| 2026-04-28 09:37 | 38.96568 | 121.51952 | 113 ft | 8 kts | 8° |
| 2026-04-28 09:37 | 38.96640 | 121.51964 | 113 ft | 12 kts | 6° |
| 2026-04-28 09:38 | 38.96707 | 121.52010 | 113 ft | 11 kts | 78° |
| 2026-04-28 09:38 | 38.96706 | 121.52051 | 113 ft | 0 kts | 96° |
| 2026-04-28 09:40 | 38.96706 | 121.52052 | 113 ft | 0 kts | 96° |
| 2026-04-28 09:40 | 38.96686 | 121.52328 | 113 ft | 72 kts | 96° |
| 2026-04-28 09:40 | 38.96606 | 121.53328 | 113 ft | 146 kts | 95° |
| 2026-04-28 09:41 | 38.96498 | 121.54855 | 317 ft | 185 kts | 93° |
| 2026-04-28 09:41 | 38.96395 | 121.56503 | 1025 ft | 186 kts | 91° |
| 2026-04-28 09:41 | 38.96264 | 121.58120 | 1729 ft | 182 kts | 91° |
| 2026-04-28 09:41 | 38.96128 | 121.59791 | 2199 ft | 193 kts | 90° |
| 2026-04-28 09:42 | 38.95992 | 121.61571 | 2591 ft | 208 kts | 90° |
| 2026-04-28 09:42 | 38.95847 | 121.63513 | 2961 ft | 227 kts | 90° |
| 2026-04-28 09:42 | 38.95686 | 121.65642 | 3327 ft | 248 kts | 91° |
| 2026-04-28 09:42 | 38.95519 | 121.67825 | 3780 ft | 264 kts | 91° |
| 2026-04-28 09:43 | 38.95335 | 121.70133 | 4484 ft | 269 kts | 90° |
| 2026-04-28 09:43 | 38.95142 | 121.72532 | 5326 ft | 270 kts | 90° |
| 2026-04-28 09:43 | 38.94949 | 121.74933 | 6152 ft | 272 kts | 89° |
| 2026-04-28 09:43 | 38.94755 | 121.77380 | 6961 ft | 273 kts | 89° |
| 2026-04-28 09:44 | 38.94560 | 121.79855 | 7682 ft | 277 kts | 90° |
| 2026-04-28 09:44 | 38.94359 | 121.82358 | 8420 ft | 281 kts | 89° |
| 2026-04-28 09:44 | 38.94162 | 121.84814 | 9101 ft | 285 kts | 89° |
| 2026-04-28 09:44 | 38.93959 | 121.87380 | 9827 ft | 287 kts | 89° |
| 2026-04-28 09:45 | 38.93756 | 121.89965 | 10488 ft | 292 kts | 90° |
| 2026-04-28 09:45 | 38.93549 | 121.92622 | 10882 ft | 306 kts | 90° |
| 2026-04-28 09:45 | 38.93332 | 121.95418 | 11411 ft | 315 kts | 91° |
| 2026-04-28 09:45 | 38.93106 | 121.98244 | 12035 ft | 319 kts | 91° |
| 2026-04-28 09:46 | 38.92720 | 122.03080 | 13102 ft | 323 kts | 92° |
| 2026-04-28 09:46 | 38.92290 | 122.08408 | 14169 ft | 329 kts | 93° |
| 2026-04-28 09:46 | 38.92046 | 122.11356 | 14700 ft | 334 kts | 93° |
| 2026-04-28 09:46 | 38.91803 | 122.14299 | 15311 ft | 337 kts | 93° |
| 2026-04-28 09:47 | 38.91555 | 122.17283 | 15892 ft | 340 kts | 92° |
| 2026-04-28 09:47 | 38.91305 | 122.20326 | 16301 ft | 348 kts | 93° |
| 2026-04-28 09:47 | 38.91047 | 122.23491 | 16578 ft | 360 kts | 92° |
| 2026-04-28 09:47 | 38.90783 | 122.26706 | 17054 ft | 365 kts | 92° |
| 2026-04-28 09:48 | 38.90775 | 122.29899 | 17566 ft | 362 kts | 76° |
| 2026-04-28 09:48 | 38.91701 | 122.32914 | 18074 ft | 356 kts | 53° |
| 2026-04-28 09:48 | 38.93372 | 122.35191 | 18600 ft | 351 kts | 33° |
| 2026-04-28 09:48 | 38.98057 | 122.38884 | 19521 ft | 353 kts | 27° |
| 2026-04-28 09:49 | 39.29072 | 122.63705 | 22468 ft | 365 kts | 24° |
| 2026-04-28 09:49 | 39.41893 | 122.73482 | 23733 ft | 367 kts | 17° |
| 2026-04-28 09:49 | 39.44264 | 122.74857 | 24075 ft | 371 kts | 17° |
| 2026-04-28 09:49 | 39.46633 | 122.76286 | 24461 ft | 373 kts | 17° |
| 2026-04-28 09:50 | 39.48953 | 122.77770 | 24822 ft | 378 kts | 18° |
| 2026-04-28 09:50 | 39.55222 | 122.82018 | 25656 ft | 384 kts | 19° |
| 2026-04-28 09:50 | 39.92302 | 123.09049 | 28561 ft | 393 kts | 15° |
| 2026-04-28 09:50 | 40.32525 | 123.37495 | 28864 ft | 405 kts | 16° |
| 2026-04-28 09:51 | 41.12815 | 123.95995 | 28602 ft | 404 kts | 23° |
| 2026-04-28 09:51 | 41.51860 | 124.24659 | 28521 ft | 393 kts | 24° |
| 2026-04-28 09:51 | 41.89682 | 124.53437 | 28603 ft | 385 kts | 25° |
| 2026-04-28 09:52 | 42.26517 | 124.79771 | 28839 ft | 380 kts | 21° |
| 2026-04-28 09:52 | 42.45614 | 124.92133 | 28605 ft | 379 kts | 25° |
| 2026-04-28 09:52 | 42.50237 | 124.95601 | 28612 ft | 377 kts | 25° |
| 2026-04-28 09:53 | 42.54900 | 124.98972 | 28616 ft | 376 kts | 24° |
| 2026-04-28 09:53 | 42.77532 | 125.14915 | 28623 ft | 375 kts | 23° |
| 2026-04-28 09:54 | 42.82009 | 125.18626 | 28615 ft | 380 kts | 37° |
| 2026-04-28 09:54 | 42.85550 | 125.23960 | 28609 ft | 386 kts | 51° |
| 2026-04-28 09:54 | 42.88452 | 125.30234 | 28603 ft | 388 kts | 55° |
| 2026-04-28 09:55 | 42.95544 | 125.40773 | 28618 ft | 373 kts | 23° |
| 2026-04-28 09:55 | 43.06352 | 125.47203 | 28325 ft | 373 kts | 21° |
| 2026-04-28 09:56 | 43.15771 | 125.53636 | 26791 ft | 370 kts | 24° |
| 2026-04-28 09:56 | 43.31059 | 125.64724 | 22781 ft | 369 kts | 24° |
| 2026-04-28 09:56 | 43.35678 | 125.67911 | 21525 ft | 368 kts | 24° |
| 2026-04-28 09:56 | 43.40426 | 125.70707 | 20370 ft | 362 kts | 12° |
| 2026-04-28 09:57 | 43.45374 | 125.70838 | 19281 ft | 354 kts | 347° |
| 2026-04-28 09:57 | 43.49802 | 125.67972 | 18077 ft | 352 kts | 322° |
| 2026-04-28 09:57 | 43.53490 | 125.63081 | 16864 ft | 351 kts | 317° |
| 2026-04-28 09:57 | 43.55463 | 125.61209 | 16252 ft | 350 kts | 336° |
| 2026-04-28 09:58 | 43.57767 | 125.60097 | 15662 ft | 350 kts | 342° |
| 2026-04-28 09:58 | 43.60103 | 125.59061 | 15060 ft | 349 kts | 341° |
| 2026-04-28 09:58 | 43.62416 | 125.57947 | 14461 ft | 349 kts | 342° |
| 2026-04-28 09:58 | 43.64806 | 125.57431 | 13843 ft | 350 kts | 1° |
| 2026-04-28 09:59 | 43.67226 | 125.58162 | 13252 ft | 352 kts | 21° |
| 2026-04-28 09:59 | 43.69287 | 125.60014 | 12662 ft | 355 kts | 41° |
| 2026-04-28 09:59 | 43.70938 | 125.62563 | 12073 ft | 341 kts | 47° |
| 2026-04-28 09:59 | 43.72419 | 125.64986 | 11487 ft | 326 kts | 47° |
| 2026-04-28 10:00 | 43.73893 | 125.67392 | 10882 ft | 313 kts | 47° |
| 2026-04-28 10:00 | 43.75258 | 125.69603 | 10424 ft | 298 kts | 46° |
| 2026-04-28 10:00 | 43.76608 | 125.71777 | 10045 ft | 292 kts | 46° |
| 2026-04-28 10:00 | 43.77918 | 125.73882 | 9778 ft | 285 kts | 46° |
| 2026-04-28 10:01 | 43.79197 | 125.75938 | 9523 ft | 278 kts | 46° |
| 2026-04-28 10:01 | 43.80496 | 125.77973 | 9253 ft | 270 kts | 41° |
| 2026-04-28 10:01 | 43.81990 | 125.79416 | 8989 ft | 259 kts | 22° |
| 2026-04-28 10:01 | 43.83673 | 125.80115 | 8729 ft | 250 kts | 5° |
| 2026-04-28 10:02 | 43.85376 | 125.80132 | 8473 ft | 243 kts | 354° |
| 2026-04-28 10:02 | 43.87918 | 125.79784 | 8073 ft | 238 kts | 353° |
| 2026-04-28 10:02 | 43.91202 | 125.79336 | 7548 ft | 234 kts | 356° |
| 2026-04-28 10:02 | 43.94985 | 125.80751 | 6865 ft | 235 kts | 32° |
| 2026-04-28 10:03 | 43.96043 | 125.82433 | 6635 ft | 235 kts | 57° |
| 2026-04-28 10:03 | 43.96871 | 125.84396 | 6366 ft | 233 kts | 56° |
| 2026-04-28 10:03 | 43.97757 | 125.86277 | 6030 ft | 233 kts | 52° |
| 2026-04-28 10:03 | 43.98739 | 125.88090 | 5617 ft | 235 kts | 44° |
| 2026-04-28 10:04 | 44.00042 | 125.89293 | 5150 ft | 226 kts | 12° |
| 2026-04-28 10:04 | 44.01572 | 125.89301 | 4726 ft | 214 kts | 338° |
| 2026-04-28 10:04 | 44.02775 | 125.88227 | 4463 ft | 202 kts | 320° |
| 2026-04-28 10:04 | 44.03857 | 125.87028 | 4087 ft | 195 kts | 323° |
| 2026-04-28 10:05 | 44.04921 | 125.85937 | 3692 ft | 184 kts | 324° |
| 2026-04-28 10:05 | 44.05925 | 125.84870 | 3192 ft | 181 kts | 315° |
| 2026-04-28 10:05 | 44.06448 | 125.83397 | 2928 ft | 168 kts | 277° |
| 2026-04-28 10:05 | 44.06373 | 125.81838 | 2685 ft | 155 kts | 269° |
| 2026-04-28 10:06 | 44.06198 | 125.80400 | 2426 ft | 142 kts | 258° |
| 2026-04-28 10:06 | 44.05830 | 125.79204 | 2143 ft | 135 kts | 246° |
| 2026-04-28 10:06 | 44.05325 | 125.78066 | 1687 ft | 137 kts | 241° |
| 2026-04-28 10:06 | 44.04807 | 125.77055 | 1412 ft | 127 kts | 236° |
| 2026-04-28 10:07 | 44.04203 | 125.76045 | 1228 ft | 144 kts | 235° |
| 2026-04-28 10:07 | 44.03589 | 125.74920 | 1204 ft | 142 kts | 237° |
| 2026-04-28 10:07 | 44.02961 | 125.73920 | 1176 ft | 135 kts | 234° |
| 2026-04-28 10:07 | 44.02356 | 125.72913 | 1034 ft | 136 kts | 233° |
| 2026-04-28 10:08 | 44.01726 | 125.71903 | 931 ft | 139 kts | 234° |
| 2026-04-28 10:08 | 44.01101 | 125.70901 | 874 ft | 137 kts | 234° |
| 2026-04-28 10:08 | 44.00467 | 125.69868 | 743 ft | 136 kts | 232° |
| 2026-04-28 10:08 | 43.99818 | 125.68786 | 830 ft | 160 kts | 237° |
| 2026-04-28 10:09 | 43.99083 | 125.67456 | 1236 ft | 188 kts | 234° |
| 2026-04-28 10:09 | 43.98176 | 125.65964 | 1753 ft | 211 kts | 226° |
| 2026-04-28 10:09 | 43.96833 | 125.65040 | 2349 ft | 233 kts | 187° |
| 2026-04-28 10:09 | 43.95040 | 125.65275 | 2434 ft | 282 kts | 167° |
| 2026-04-28 10:10 | 43.93209 | 125.66585 | 2565 ft | 312 kts | 133° |
| 2026-04-28 10:10 | 43.92267 | 125.69241 | 3215 ft | 300 kts | 95° |
| 2026-04-28 10:10 | 43.92458 | 125.71960 | 3860 ft | 273 kts | 75° |
| 2026-04-28 10:10 | 43.92879 | 125.74398 | 4422 ft | 243 kts | 70° |
| 2026-04-28 10:11 | 43.93291 | 125.76583 | 4933 ft | 233 kts | 85° |
| 2026-04-28 10:11 | 43.93045 | 125.78778 | 5433 ft | 236 kts | 104° |
| 2026-04-28 10:11 | 43.92835 | 125.81010 | 5913 ft | 232 kts | 78° |
| 2026-04-28 10:11 | 43.93445 | 125.83032 | 6420 ft | 227 kts | 46° |
| 2026-04-28 10:12 | 43.94674 | 125.84316 | 6938 ft | 223 kts | 26° |
| 2026-04-28 10:12 | 43.96011 | 125.85410 | 7446 ft | 225 kts | 31° |
| 2026-04-28 10:12 | 43.97265 | 125.86689 | 7820 ft | 216 kts | 36° |
| 2026-04-28 10:12 | 43.98364 | 125.88062 | 7450 ft | 216 kts | 41° |
| 2026-04-28 10:13 | 43.99425 | 125.89574 | 6796 ft | 221 kts | 44° |
| 2026-04-28 10:13 | 44.00456 | 125.91157 | 6263 ft | 218 kts | 45° |
| 2026-04-28 10:13 | 44.01430 | 125.92707 | 5890 ft | 213 kts | 46° |
| 2026-04-28 10:13 | 44.02399 | 125.94267 | 5272 ft | 216 kts | 46° |
| 2026-04-28 10:14 | 44.03357 | 125.95800 | 4840 ft | 208 kts | 42° |
| 2026-04-28 10:14 | 44.04517 | 125.96815 | 4467 ft | 189 kts | 11° |
| 2026-04-28 10:14 | 44.05756 | 125.96836 | 4109 ft | 175 kts | 346° |
| 2026-04-28 10:14 | 44.06842 | 125.96094 | 3674 ft | 170 kts | 323° |
| 2026-04-28 10:15 | 44.07738 | 125.95049 | 3300 ft | 166 kts | 320° |
| 2026-04-28 10:15 | 44.08594 | 125.94019 | 2985 ft | 157 kts | 320° |
| 2026-04-28 10:15 | 44.09378 | 125.93072 | 2768 ft | 142 kts | 322° |
| 2026-04-28 10:15 | 44.10077 | 125.92239 | 2623 ft | 122 kts | 321° |
| 2026-04-28 10:16 | 44.10731 | 125.91482 | 2538 ft | 128 kts | 321° |
| 2026-04-28 10:16 | 44.11503 | 125.90754 | 2836 ft | 138 kts | 326° |
| 2026-04-28 10:16 | 44.12125 | 125.89687 | 2800 ft | 152 kts | 283° |
| 2026-04-28 10:16 | 44.11959 | 125.88218 | 2729 ft | 160 kts | 252° |
| 2026-04-28 10:17 | 44.11338 | 125.86899 | 2633 ft | 164 kts | 231° |
| 2026-04-28 10:17 | 44.10522 | 125.85758 | 2551 ft | 165 kts | 228° |
| 2026-04-28 10:17 | 44.09716 | 125.84629 | 2459 ft | 165 kts | 230° |
| 2026-04-28 10:17 | 44.08917 | 125.83448 | 2462 ft | 168 kts | 231° |
| 2026-04-28 10:18 | 44.08135 | 125.82243 | 2466 ft | 169 kts | 232° |
| 2026-04-28 10:18 | 44.07369 | 125.81025 | 2453 ft | 167 kts | 233° |
| 2026-04-28 10:18 | 44.06598 | 125.79763 | 2474 ft | 168 kts | 233° |
| 2026-04-28 10:18 | 44.05858 | 125.78563 | 2330 ft | 158 kts | 233° |
| 2026-04-28 10:19 | 44.05165 | 125.77441 | 2065 ft | 146 kts | 233° |
| 2026-04-28 10:19 | 44.04527 | 125.76413 | 1835 ft | 136 kts | 233° |
| 2026-04-28 10:19 | 44.03907 | 125.75411 | 1710 ft | 136 kts | 233° |
| 2026-04-28 10:19 | 44.03283 | 125.74406 | 1474 ft | 137 kts | 230° |
| 2026-04-28 10:20 | 44.02629 | 125.73397 | 1288 ft | 140 kts | 232° |
| 2026-04-28 10:20 | 44.01973 | 125.72356 | 1124 ft | 142 kts | 233° |
| 2026-04-28 10:20 | 44.01355 | 125.71299 | 926 ft | 141 kts | 233° |
| 2026-04-28 10:20 | 44.00709 | 125.70258 | 756 ft | 143 kts | 231° |
| 2026-04-28 10:21 | 44.00083 | 125.69203 | 714 ft | 139 kts | 232° |
| 2026-04-28 10:21 | 43.99408 | 125.68225 | 719 ft | 141 kts | 227° |
| 2026-04-28 10:21 | 43.98714 | 125.67250 | 719 ft | 136 kts | 221° |
| 2026-04-28 10:21 | 43.98343 | 125.66826 | 714 ft | 108 kts | 213° |
| 2026-04-28 10:24 | 43.97819 | 125.66428 | 714 ft | 111 kts | 201° |
| 2026-04-28 10:24 | 43.96905 | 125.66096 | 793 ft | 153 kts | 186° |
| 2026-04-28 10:24 | 43.95784 | 125.65966 | 1112 ft | 168 kts | 180° |
| 2026-04-28 10:25 | 43.94694 | 125.65907 | 1222 ft | 146 kts | 182° |
| 2026-04-28 10:25 | 43.93651 | 125.65588 | 1187 ft | 150 kts | 205° |
| 2026-04-28 10:25 | 43.92999 | 125.64545 | 1144 ft | 144 kts | 242° |
| 2026-04-28 10:25 | 43.92567 | 125.63303 | 1030 ft | 135 kts | 241° |
| 2026-04-28 10:26 | 43.92143 | 125.62147 | 857 ft | 131 kts | 238° |
| 2026-04-28 10:26 | 43.92028 | 125.61861 | 855 ft | 120 kts | 236° |
| 2026-04-28 10:27 | 43.91942 | 125.61666 | 816 ft | 115 kts | 234° |